createdAt,value
2022-08-22T00:03:17.454Z,95.50
2022-08-22T00:06:11.006Z,95.41
2022-08-22T00:09:06.112Z,95.35
2022-08-22T00:12:00.297Z,95.24
2022-08-22T00:15:13.231Z,95.27
2022-08-22T00:18:22.763Z,95.20
2022-08-22T00:21:17.920Z,95.09
2022-08-22T00:24:23.274Z,94.96
2022-08-22T00:27:15.453Z,95.11
2022-08-22T00:30:10.046Z,94.98
2022-08-22T00:33:02.591Z,95.16
2022-08-22T00:35:53.944Z,95.33
2022-08-22T00:38:42.668Z,94.95
2022-08-22T00:41:31.527Z,95.00
2022-08-22T00:44:16.081Z,95.12
2022-08-22T00:47:11.494Z,95.34
2022-08-22T00:50:27.721Z,95.32
2022-08-22T00:53:22.027Z,95.42
2022-08-22T00:56:15.448Z,95.40
2022-08-22T00:59:22.817Z,95.60
2022-08-22T01:02:27.470Z,95.65
2022-08-22T01:05:30.358Z,95.81
2022-08-22T01:08:34.679Z,96.07
2022-08-22T01:11:35.416Z,96.14
2022-08-22T01:14:34.990Z,95.96
2022-08-22T01:17:59.917Z,96.36
2022-08-22T01:21:16.647Z,96.61
2022-08-22T01:24:31.105Z,96.68
2022-08-22T01:27:51.677Z,96.92
2022-08-22T01:31:27.465Z,96.94
2022-08-22T01:34:33.528Z,97.18
2022-08-22T01:37:43.655Z,97.24
2022-08-22T01:40:29.370Z,97.58
2022-08-22T01:43:51.257Z,97.67
2022-08-22T01:46:53.600Z,97.78
2022-08-22T01:49:35.371Z,97.85
2022-08-22T01:52:40.716Z,97.91
2022-08-22T01:55:50.980Z,97.86
2022-08-22T01:58:37.687Z,97.95
2022-08-22T02:01:52.863Z,98.10
2022-08-22T02:05:02.610Z,98.17
2022-08-22T02:08:05.806Z,98.36
2022-08-22T02:11:06.646Z,98.35
2022-08-22T02:14:13.532Z,98.50
2022-08-22T02:17:10.168Z,98.72
2022-08-22T02:20:20.318Z,98.80
2022-08-22T02:23:36.220Z,98.78
2022-08-22T02:26:47.300Z,98.91
2022-08-22T02:29:44.453Z,98.87
2022-08-22T02:32:41.404Z,98.94
2022-08-22T02:35:32.821Z,99.01
2022-08-22T02:38:39.603Z,98.99
2022-08-22T02:41:44.843Z,98.98
2022-08-22T02:44:33.774Z,98.91
2022-08-22T02:47:24.507Z,99.10
2022-08-22T02:50:24.734Z,99.34
2022-08-22T02:53:23.421Z,99.24
2022-08-22T02:56:15.046Z,99.34
2022-08-22T02:59:11.943Z,99.60
2022-08-22T03:01:55.733Z,99.45
2022-08-22T03:04:40.599Z,99.53
2022-08-22T03:07:22.493Z,99.80
2022-08-22T03:10:18.931Z,99.65
2022-08-22T03:13:11.900Z,99.79
2022-08-22T03:16:04.741Z,99.85
2022-08-22T03:19:18.440Z,99.95
2022-08-22T03:22:31.506Z,99.99
2022-08-22T03:25:30.298Z,100.00
2022-08-22T03:28:24.484Z,100.00
2022-08-22T03:31:14.659Z,100.00
2022-08-22T03:34:17.664Z,100.00
2022-08-22T03:37:19.629Z,100.00
2022-08-22T03:40:08.182Z,100.00
2022-08-22T03:43:15.165Z,100.00
2022-08-22T03:46:21.560Z,100.00
2022-08-22T03:49:33.231Z,100.00
2022-08-22T03:53:15.510Z,100.00
2022-08-22T03:56:39.421Z,100.00
2022-08-22T03:59:42.906Z,100.00
2022-08-22T04:03:05.780Z,100.00
2022-08-22T04:06:15.733Z,100.00
2022-08-22T04:09:27.836Z,100.00
2022-08-22T04:13:02.981Z,100.00
2022-08-22T04:16:37.511Z,100.00
2022-08-22T04:19:49.411Z,100.00
2022-08-22T04:22:53.322Z,100.00
2022-08-22T04:25:42.534Z,100.00
2022-08-22T04:28:37.593Z,99.97
2022-08-22T04:31:30.138Z,99.94
2022-08-22T04:34:36.919Z,99.87
2022-08-22T04:37:25.470Z,99.75
2022-08-22T04:40:22.259Z,99.78
2022-08-22T04:43:13.534Z,99.75
2022-08-22T04:46:03.354Z,99.77
2022-08-22T04:48:53.546Z,99.60
2022-08-22T04:51:52.395Z,99.71
2022-08-22T04:55:08.697Z,99.95
2022-08-22T04:58:21.421Z,99.67
2022-08-22T05:01:12.527Z,99.49
2022-08-22T05:04:03.322Z,99.42
2022-08-22T05:06:53.980Z,99.24
2022-08-22T05:09:39.353Z,99.37
2022-08-22T05:12:34.146Z,99.28
2022-08-22T05:15:39.146Z,99.16
2022-08-22T05:18:29.777Z,99.39
2022-08-22T05:21:14.515Z,99.30
2022-08-22T05:24:05.519Z,99.37
2022-08-22T05:26:53.422Z,99.59
2022-08-22T05:29:40.376Z,99.43
2022-08-22T05:32:44.020Z,99.40
2022-08-22T05:35:35.221Z,99.21
2022-08-22T05:38:23.397Z,99.21
2022-08-22T05:41:17.148Z,99.21
2022-08-22T05:43:59.717Z,99.22
2022-08-22T05:46:50.215Z,99.21
2022-08-22T05:49:35.081Z,99.28
2022-08-22T05:52:35.917Z,99.11
2022-08-22T05:55:30.515Z,99.14
2022-08-22T05:58:27.359Z,99.15
2022-08-22T06:01:21.600Z,99.36
2022-08-22T06:04:24.960Z,99.53
2022-08-22T06:07:25.987Z,99.38
2022-08-22T06:10:15.767Z,99.59
2022-08-22T06:13:14.968Z,99.76
2022-08-22T06:16:07.923Z,99.76
2022-08-22T06:18:52.852Z,99.96
2022-08-22T06:21:39.593Z,99.84
2022-08-22T06:24:27.643Z,99.61
2022-08-22T06:27:14.553Z,99.64
2022-08-22T06:30:00.898Z,99.70
2022-08-22T06:32:58.867Z,99.70
2022-08-22T06:36:06.116Z,99.77
2022-08-22T06:38:54.052Z,99.79
2022-08-22T06:41:57.966Z,99.92
2022-08-22T06:44:47.261Z,99.94
2022-08-22T06:47:36.393Z,99.88
2022-08-22T06:50:44.919Z,99.92
2022-08-22T06:53:47.979Z,99.93
2022-08-22T06:56:39.072Z,99.97
2022-08-22T06:59:27.689Z,99.98
2022-08-22T07:02:21.347Z,99.93
2022-08-22T07:05:05.835Z,99.99
2022-08-22T07:07:49.331Z,99.93
2022-08-22T07:10:31.337Z,100.00
2022-08-22T07:13:16.493Z,99.98
2022-08-22T07:16:03.010Z,100.00
2022-08-22T07:18:50.337Z,100.00
2022-08-22T07:21:44.694Z,100.00
2022-08-22T07:24:32.086Z,100.00
2022-08-22T07:27:26.434Z,100.00
2022-08-22T07:30:12.967Z,100.00
2022-08-22T07:33:25.329Z,100.00
2022-08-22T07:36:31.772Z,100.00
2022-08-22T07:39:32.676Z,100.00
2022-08-22T07:42:19.391Z,100.00
2022-08-22T07:45:14.013Z,100.00
2022-08-22T07:48:03.044Z,100.00
2022-08-22T07:51:12.162Z,100.00
2022-08-22T07:54:04.852Z,100.00
2022-08-22T07:57:03.397Z,100.00
2022-08-22T07:59:53.688Z,100.00
2022-08-22T08:02:35.995Z,100.00
2022-08-22T08:05:20.164Z,99.99
2022-08-22T08:08:08.548Z,100.00
2022-08-22T08:10:57.042Z,100.00
2022-08-22T08:13:49.791Z,100.00
2022-08-22T08:16:44.798Z,100.00
2022-08-22T08:19:29.054Z,100.00
2022-08-22T08:22:25.081Z,100.00
2022-08-22T08:25:09.160Z,100.00
2022-08-22T08:28:11.291Z,100.00
2022-08-22T08:31:07.827Z,100.00
2022-08-22T08:33:54.229Z,100.00
2022-08-22T08:36:42.394Z,100.00
2022-08-22T08:39:35.884Z,100.00
2022-08-22T08:42:26.906Z,100.00
2022-08-22T08:45:38.953Z,100.00
2022-08-22T08:48:35.183Z,100.00
2022-08-22T08:51:59.166Z,100.00
2022-08-22T08:55:25.605Z,100.00
2022-08-22T08:58:34.842Z,100.00
2022-08-22T09:01:37.967Z,100.00
2022-08-22T09:04:30.173Z,100.00
2022-08-22T09:07:47.933Z,100.00
2022-08-22T09:11:09.996Z,100.00
2022-08-22T09:14:03.208Z,100.00
2022-08-22T09:17:14.596Z,100.00
2022-08-22T09:20:46.491Z,100.00
2022-08-22T09:24:18.739Z,100.00
2022-08-22T09:27:08.930Z,100.00
2022-08-22T09:30:11.932Z,100.00
2022-08-22T09:33:10.012Z,100.00
2022-08-22T09:36:14.930Z,100.00
2022-08-22T09:39:07.630Z,99.97
2022-08-22T09:41:58.939Z,100.00
2022-08-22T09:45:39.206Z,100.00
2022-08-22T09:48:46.459Z,99.97
2022-08-22T09:51:39.098Z,100.00
2022-08-22T09:54:37.766Z,100.00
2022-08-22T09:57:36.141Z,100.00
2022-08-22T10:00:32.790Z,100.00
2022-08-22T10:03:21.773Z,100.00
2022-08-22T10:06:13.349Z,100.00
2022-08-22T10:09:05.634Z,100.00
2022-08-22T10:12:03.403Z,100.00
2022-08-22T10:15:07.168Z,100.00
2022-08-22T10:18:19.418Z,99.99
2022-08-22T10:21:33.414Z,99.87
2022-08-22T10:24:46.241Z,99.91
2022-08-22T10:27:40.166Z,99.99
2022-08-22T10:30:29.843Z,100.00
2022-08-22T10:33:29.866Z,100.00
2022-08-22T10:36:18.006Z,100.00
2022-08-22T10:39:09.400Z,99.98
2022-08-22T10:42:11.439Z,100.00
2022-08-22T10:45:02.503Z,100.00
2022-08-22T10:47:54.127Z,100.00
2022-08-22T10:50:53.496Z,100.00
2022-08-22T10:53:53.867Z,100.00
2022-08-22T10:57:23.680Z,100.00
2022-08-22T11:00:34.491Z,100.00
2022-08-22T11:03:27.101Z,100.00
2022-08-22T11:06:26.405Z,100.00
2022-08-22T11:09:28.067Z,100.00
2022-08-22T11:12:19.444Z,100.00
2022-08-22T11:15:28.498Z,100.00
2022-08-22T11:18:40.006Z,100.00
2022-08-22T11:22:11.157Z,100.00
2022-08-22T11:25:11.267Z,100.00
2022-08-22T11:28:18.162Z,100.00
2022-08-22T11:31:07.538Z,100.00
2022-08-22T11:34:03.869Z,100.00
2022-08-22T11:36:54.642Z,100.00
2022-08-22T11:40:04.360Z,100.00
2022-08-22T11:43:13.173Z,100.00
2022-08-22T11:46:19.757Z,100.00
2022-08-22T11:49:26.814Z,100.00
2022-08-22T11:52:31.125Z,100.00
2022-08-22T11:55:35.962Z,100.00
2022-08-22T11:58:37.108Z,100.00
2022-08-22T12:01:25.453Z,100.00
2022-08-22T12:04:42.701Z,100.00
2022-08-22T12:07:32.466Z,100.00
2022-08-22T12:10:22.017Z,100.00
2022-08-22T12:13:16.422Z,100.00
2022-08-22T12:16:16.751Z,100.00
2022-08-22T12:19:32.742Z,99.93
2022-08-22T12:22:39.571Z,99.51
2022-08-22T12:25:54.498Z,99.31
2022-08-22T12:28:45.616Z,99.01
2022-08-22T12:31:58.738Z,98.57
2022-08-22T12:34:59.271Z,98.53
2022-08-22T12:37:53.093Z,98.47
2022-08-22T12:40:58.435Z,98.23
2022-08-22T12:44:17.219Z,98.40
2022-08-22T12:47:32.013Z,99.19
2022-08-22T12:50:32.651Z,98.75
2022-08-22T12:53:38.923Z,98.40
2022-08-22T12:56:27.471Z,98.33
2022-08-22T12:59:30.461Z,97.04
2022-08-22T13:02:14.918Z,96.30
2022-08-22T13:05:00.804Z,94.71
2022-08-22T13:07:49.539Z,94.12
2022-08-22T13:10:50.560Z,94.81
2022-08-22T13:13:40.808Z,94.38
2022-08-22T13:16:25.231Z,93.69
2022-08-22T13:19:16.264Z,93.13
2022-08-22T13:22:07.682Z,92.16
2022-08-22T13:25:02.105Z,91.71
2022-08-22T13:27:53.385Z,91.82
2022-08-22T13:30:39.789Z,91.51
2022-08-22T13:33:30.490Z,90.59
2022-08-22T13:36:16.686Z,91.04
2022-08-22T13:39:15.478Z,89.31
2022-08-22T13:42:07.656Z,87.97
2022-08-22T13:44:58.521Z,88.48
2022-08-22T13:47:50.883Z,86.94
2022-08-22T13:50:53.502Z,86.81
2022-08-22T13:53:35.953Z,85.59
2022-08-22T13:56:23.279Z,85.32
2022-08-22T13:59:25.299Z,85.27
2022-08-22T14:02:36.101Z,85.92
2022-08-22T14:05:33.458Z,85.91
2022-08-22T14:08:27.356Z,85.41
2022-08-22T14:11:18.667Z,84.23
2022-08-22T14:14:04.295Z,83.67
2022-08-22T14:16:50.864Z,83.85
2022-08-22T14:19:59.122Z,83.28
2022-08-22T14:22:56.742Z,83.69
2022-08-22T14:25:43.267Z,82.28
2022-08-22T14:28:30.358Z,82.14
2022-08-22T14:31:14.505Z,82.48
2022-08-22T14:34:13.615Z,83.16
2022-08-22T14:37:08.811Z,83.22
2022-08-22T14:39:57.152Z,83.75
2022-08-22T14:42:50.464Z,83.81
2022-08-22T14:45:37.333Z,83.22
2022-08-22T14:48:31.429Z,83.90
2022-08-22T14:51:23.755Z,84.01
2022-08-22T14:54:14.114Z,83.63
2022-08-22T14:57:10.124Z,83.97
2022-08-22T14:59:53.244Z,84.26
2022-08-22T15:02:35.915Z,84.11
2022-08-22T15:05:21.637Z,83.78
2022-08-22T15:08:05.300Z,83.66
2022-08-22T15:10:47.848Z,84.07
2022-08-22T15:13:30.053Z,83.81
2022-08-22T15:16:37.955Z,83.98
2022-08-22T15:19:25.638Z,83.68
2022-08-22T15:22:25.773Z,83.67
2022-08-22T15:25:21.688Z,83.23
2022-08-22T15:28:14.173Z,83.78
2022-08-22T15:30:57.358Z,84.00
2022-08-22T15:33:43.256Z,83.89
2022-08-22T15:36:27.774Z,83.97
2022-08-22T15:39:29.616Z,84.09
2022-08-22T15:42:32.086Z,84.37
2022-08-22T15:45:33.868Z,84.37
2022-08-22T15:48:33.640Z,84.19
2022-08-22T15:51:34.716Z,83.92
2022-08-22T15:54:31.266Z,84.18
2022-08-22T15:57:48.486Z,84.19
2022-08-22T16:01:03.529Z,84.04
2022-08-22T16:04:02.283Z,83.85
2022-08-22T16:07:10.313Z,84.19
2022-08-22T16:09:57.521Z,84.23
2022-08-22T16:13:06.755Z,84.37
2022-08-22T16:15:56.868Z,84.62
2022-08-22T16:18:43.930Z,84.78
2022-08-22T16:21:26.527Z,85.03
2022-08-22T16:24:08.931Z,85.19
2022-08-22T16:26:52.160Z,85.34
2022-08-22T16:29:42.962Z,85.58
2022-08-22T16:32:28.474Z,85.65
2022-08-22T16:35:10.649Z,85.84
2022-08-22T16:37:54.506Z,86.08
2022-08-22T16:40:47.648Z,86.32
2022-08-22T16:43:29.747Z,86.46
2022-08-22T16:46:33.141Z,86.83
2022-08-22T16:49:30.549Z,87.01
2022-08-22T16:52:21.344Z,87.40
2022-08-22T16:55:29.353Z,87.54
2022-08-22T16:58:40.224Z,87.48
2022-08-22T17:01:50.299Z,87.47
2022-08-22T17:04:51.432Z,87.65
2022-08-22T17:07:36.537Z,87.88
2022-08-22T17:10:38.841Z,87.85
2022-08-22T17:13:37.224Z,88.14
2022-08-22T17:17:00.694Z,88.20
2022-08-22T17:20:01.582Z,88.38
2022-08-22T17:23:11.795Z,88.56
2022-08-22T17:26:12.533Z,88.86
2022-08-22T17:29:31.292Z,88.93
2022-08-22T17:32:21.586Z,89.34
2022-08-22T17:35:32.878Z,89.52
2022-08-22T17:38:20.547Z,89.60
2022-08-22T17:41:22.399Z,89.70
2022-08-22T17:44:04.260Z,89.89
2022-08-22T17:47:01.157Z,90.17
2022-08-22T17:49:45.127Z,90.27
2022-08-22T17:52:53.774Z,90.45
2022-08-22T17:56:07.005Z,90.59
2022-08-22T17:58:58.835Z,90.91
2022-08-22T18:01:57.112Z,91.07
2022-08-22T18:05:08.144Z,91.11
2022-08-22T18:08:37.375Z,91.34
2022-08-22T18:11:28.619Z,91.56
2022-08-22T18:14:39.078Z,91.56
2022-08-22T18:17:34.989Z,91.96
2022-08-22T18:20:34.769Z,91.90
2022-08-22T18:23:39.283Z,91.97
2022-08-22T18:26:50.222Z,92.30
2022-08-22T18:29:47.885Z,92.33
2022-08-22T18:32:33.310Z,92.40
2022-08-22T18:35:27.111Z,92.33
2022-08-22T18:38:22.449Z,92.43
2022-08-22T18:41:26.824Z,92.34
2022-08-22T18:44:18.294Z,92.47
2022-08-22T18:47:12.171Z,92.58
2022-08-22T18:49:56.672Z,92.54
2022-08-22T18:52:40.059Z,92.54
2022-08-22T18:55:39.975Z,92.48
2022-08-22T18:59:05.327Z,92.57
2022-08-22T19:02:08.996Z,92.53
2022-08-22T19:05:28.166Z,92.51
2022-08-22T19:08:29.470Z,92.55
2022-08-22T19:11:38.042Z,92.46
2022-08-22T19:14:34.478Z,92.45
2022-08-22T19:17:42.483Z,92.55
2022-08-22T19:20:52.243Z,92.66
2022-08-22T19:23:37.740Z,92.63
2022-08-22T19:26:33.949Z,92.66
2022-08-22T19:29:18.809Z,92.50
2022-08-22T19:32:05.773Z,92.53
2022-08-22T19:34:48.615Z,92.47
2022-08-22T19:37:33.574Z,92.35
2022-08-22T19:40:44.999Z,92.12
2022-08-22T19:43:38.463Z,91.99
2022-08-22T19:46:36.949Z,91.58
2022-08-22T19:49:32.361Z,91.40
2022-08-22T19:52:35.454Z,91.23
2022-08-22T19:55:38.210Z,90.87
2022-08-22T19:58:47.203Z,90.39
2022-08-22T20:01:43.269Z,89.96
2022-08-22T20:04:47.416Z,89.25
2022-08-22T20:07:53.385Z,88.49
2022-08-22T20:10:53.083Z,88.41
2022-08-22T20:13:37.723Z,87.83
2022-08-22T20:16:58.746Z,87.25
2022-08-22T20:23:03.615Z,85.65
2022-08-22T20:25:51.294Z,85.18
2022-08-22T20:28:49.903Z,84.94
2022-08-22T20:31:36.645Z,84.23
2022-08-22T20:34:25.602Z,83.87
2022-08-22T20:37:31.962Z,84.01
2022-08-22T20:40:51.874Z,83.47
2022-08-22T20:43:39.379Z,83.15
2022-08-22T20:46:44.632Z,83.34
2022-08-22T20:49:42.005Z,82.75
2022-08-22T20:52:31.780Z,82.60
2022-08-22T20:55:31.575Z,82.57
2022-08-22T20:58:20.900Z,82.22
2022-08-22T21:01:06.546Z,82.23
2022-08-22T21:03:52.048Z,82.27
2022-08-22T21:06:36.271Z,82.04
2022-08-22T21:09:39.978Z,82.30
2022-08-22T21:12:22.745Z,82.14
2022-08-22T21:15:05.098Z,82.15
2022-08-22T21:17:47.005Z,82.48
2022-08-22T21:20:33.515Z,82.41
2022-08-22T21:23:16.727Z,82.46
2022-08-22T21:25:58.726Z,82.25
2022-08-22T21:28:54.495Z,81.92
2022-08-22T21:31:44.226Z,81.89
2022-08-22T21:34:35.438Z,81.70
2022-08-22T21:37:26.042Z,81.89
2022-08-22T21:40:24.879Z,82.04
2022-08-22T21:43:14.131Z,82.09
2022-08-22T21:45:56.302Z,81.92
2022-08-22T21:48:56.937Z,82.07
2022-08-22T21:51:44.704Z,82.31
2022-08-22T21:54:33.122Z,82.06
2022-08-22T21:57:18.414Z,82.07
2022-08-22T22:00:00.559Z,81.95
2022-08-22T22:02:44.053Z,81.90
2022-08-22T22:05:26.034Z,81.87
2022-08-22T22:08:11.344Z,82.10
2022-08-22T22:10:55.694Z,82.10
2022-08-22T22:13:38.756Z,82.14
2022-08-22T22:16:25.884Z,81.96
2022-08-22T22:19:09.073Z,81.72
2022-08-22T22:21:54.399Z,81.95
2022-08-22T22:24:36.296Z,81.89
2022-08-22T22:27:18.396Z,81.65
2022-08-22T22:30:00.394Z,81.50
2022-08-22T22:32:42.494Z,81.70
2022-08-22T22:35:29.100Z,81.75
2022-08-22T22:38:12.327Z,81.89
2022-08-22T22:40:54.226Z,81.95
2022-08-22T22:43:36.305Z,81.67
2022-08-22T22:46:18.187Z,81.82
2022-08-22T22:49:00.058Z,81.71
2022-08-22T22:51:42.014Z,81.72
2022-08-22T22:54:27.294Z,81.75
2022-08-22T22:57:12.350Z,81.77
2022-08-22T22:59:55.277Z,81.90
2022-08-22T23:02:37.273Z,81.83
2022-08-22T23:05:19.272Z,81.76
2022-08-22T23:08:02.282Z,82.06
2022-08-22T23:10:44.291Z,81.98
2022-08-22T23:13:26.289Z,82.04
2022-08-22T23:16:10.704Z,82.15
2022-08-22T23:18:52.995Z,82.02
2022-08-22T23:21:34.789Z,82.14
2022-08-22T23:24:17.567Z,82.21
2022-08-22T23:26:59.766Z,82.44
2022-08-22T23:29:42.374Z,82.20
2022-08-22T23:32:24.277Z,82.33
2022-08-22T23:35:07.294Z,82.35
2022-08-22T23:37:49.188Z,82.47
2022-08-22T23:40:31.391Z,82.44
2022-08-22T23:43:13.286Z,82.53
2022-08-22T23:45:55.181Z,82.58
2022-08-22T23:48:37.078Z,82.63
2022-08-22T23:51:23.016Z,82.83
2022-08-22T23:54:05.989Z,82.78
2022-08-22T23:56:54.974Z,82.88
2022-08-22T23:59:38.525Z,83.06
